Time;durP1;ratioP1;P1;durP2;ratioP2;P2;SDS_P1;SDS_P2;PMS_P1;PMS_P2;Temp;Humidity;BMP_temperature;BMP_pressure;BME280_temperature;BME280_humidity;BME280_pressure;Samples;Min_cycle;Max_cycle;Signal;HPM_P1;HPM_P2
2021/08/19 00:00:03;;;;;;;;;;;19.40;70.60;;;;;;494102;240;1037;-46
2021/08/19 00:02:05;;;;;;;;;;;19.40;70.60;;;;;;494091;240;1193;-46
2021/08/19 00:04:06;;;;;;;;;;;19.40;70.60;;;;;;494531;240;1178;-46
2021/08/19 00:06:07;;;;;;;;;;;19.40;70.70;;;;;;494326;239;1155;-46
2021/08/19 00:08:09;;;;;;;;;;;19.40;70.70;;;;;;494554;240;1569;-46
2021/08/19 00:10:10;;;;;;;;;;;19.40;70.80;;;;;;494334;240;1025;-46
2021/08/19 00:12:12;;;;;;;;;;;19.30;70.70;;;;;;494072;240;2191;-46
2021/08/19 00:14:13;;;;;;;;;;;19.30;70.70;;;;;;494531;240;1023;-46
2021/08/19 00:16:14;;;;;;;;;;;19.30;70.70;;;;;;494272;240;1449;-46
2021/08/19 00:18:15;;;;;;;;;;;19.30;70.70;;;;;;494028;240;1060;-46
2021/08/19 00:20:17;;;;;;;;;;;19.30;70.70;;;;;;494033;240;1176;-46
2021/08/19 00:22:18;;;;;;;;;;;19.30;70.80;;;;;;494248;240;1110;-46
2021/08/19 00:24:19;;;;;;;;;;;19.30;70.80;;;;;;494047;240;1029;-46
2021/08/19 00:26:21;;;;;;;;;;;19.20;70.80;;;;;;494117;240;1310;-46
2021/08/19 00:28:22;;;;;;;;;;;19.30;70.80;;;;;;494515;240;1137;-46
2021/08/19 00:30:23;;;;;;;;;;;19.20;70.70;;;;;;494573;240;1026;-46
2021/08/19 00:32:25;;;;;;;;;;;19.20;70.90;;;;;;494319;240;2182;-46
2021/08/19 00:34:26;;;;;;;;;;;19.20;70.80;;;;;;494103;240;1038;-46
2021/08/19 00:36:27;;;;;;;;;;;19.20;70.80;;;;;;494289;240;1280;-46
2021/08/19 00:38:29;;;;;;;;;;;19.20;70.80;;;;;;494199;240;1037;-46
2021/08/19 00:40:30;;;;;;;;;;;19.20;70.80;;;;;;494077;240;1030;-46
2021/08/19 00:42:31;;;;;;;;;;;19.20;70.90;;;;;;494122;240;1198;-46
2021/08/19 00:44:33;;;;;;;;;;;19.20;71.00;;;;;;494463;240;1043;-46
2021/08/19 00:46:34;;;;;;;;;;;19.20;71.00;;;;;;494042;240;1235;-46
2021/08/19 00:48:35;;;;;;;;;;;19.20;70.90;;;;;;493961;240;1529;-46
2021/08/19 00:50:37;;;;;;;;;;;19.10;70.90;;;;;;494317;240;1078;-46
2021/08/19 00:52:38;;;;;;;;;;;19.10;70.90;;;;;;494359;240;2191;-46
2021/08/19 00:54:39;;;;;;;;;;;19.10;71.00;;;;;;494555;240;1069;-46
2021/08/19 00:56:41;;;;;;;;;;;19.10;70.90;;;;;;494036;237;1246;-46
2021/08/19 00:58:42;;;;;;;;;;;19.10;70.80;;;;;;494103;240;1222;-46
2021/08/19 01:00:43;;;;;;;;;;;19.10;70.80;;;;;;494520;240;1255;-46
2021/08/19 01:02:46;;;;;;;;;;;19.10;71.00;;;;;;494044;240;1234;-46
2021/08/19 01:04:46;;;;;;;;;;;19.10;71.00;;;;;;494442;241;1979;-46
2021/08/19 01:06:47;;;;;;;;;;;19.10;71.10;;;;;;494255;240;1244;-46
2021/08/19 01:08:49;;;;;;;;;;;19.10;71.00;;;;;;494071;240;1110;-46
2021/08/19 01:10:50;;;;;;;;;;;19.10;70.90;;;;;;494484;240;1077;-46
2021/08/19 01:12:51;;;;;;;;;;;19.10;70.90;;;;;;494095;240;2182;-46
2021/08/19 01:14:53;;;;;;;;;;;19.10;70.90;;;;;;494198;240;1078;-46
2021/08/19 01:16:54;;;;;;;;;;;19.10;70.90;;;;;;494517;240;1340;-46
2021/08/19 01:18:55;;;;;;;;;;;19.10;71.00;;;;;;494210;240;1148;-46
2021/08/19 01:20:56;;;;;;;;;;;19.10;70.90;;;;;;494074;240;1104;-46
2021/08/19 01:22:58;;;;;;;;;;;19.10;70.90;;;;;;494176;240;1067;-46
2021/08/19 01:24:59;;;;;;;;;;;19.10;70.90;;;;;;494091;240;1055;-46
2021/08/19 01:27:01;;;;;;;;;;;19.00;70.90;;;;;;494330;240;1439;-46
2021/08/19 01:29:04;;;;;;;;;;;19.00;70.90;;;;;;494016;240;1038;-46
2021/08/19 01:31:03;;;;;;;;;;;19.00;70.90;;;;;;494342;241;1423;-46
2021/08/19 01:33:05;;;;;;;;;;;19.00;70.90;;;;;;494039;240;2143;-46
2021/08/19 01:35:06;;;;;;;;;;;19.00;70.90;;;;;;494537;240;1253;-46
2021/08/19 01:37:07;;;;;;;;;;;19.00;70.90;;;;;;493975;240;1223;-45
2021/08/19 01:39:09;;;;;;;;;;;19.10;70.90;;;;;;494252;240;1036;-46
2021/08/19 01:41:10;;;;;;;;;;;19.00;70.90;;;;;;494152;240;1084;-46
2021/08/19 01:43:11;;;;;;;;;;;19.00;71.00;;;;;;494197;240;1221;-46
2021/08/19 01:45:13;;;;;;;;;;;19.00;71.00;;;;;;494073;240;1074;-46
2021/08/19 01:47:14;;;;;;;;;;;19.00;71.00;;;;;;494273;240;1294;-46
2021/08/19 01:49:16;;;;;;;;;;;19.00;71.00;;;;;;494206;240;1045;-46
2021/08/19 01:51:17;;;;;;;;;;;19.00;71.10;;;;;;494169;240;1065;-46
2021/08/19 01:53:18;;;;;;;;;;;19.00;71.00;;;;;;494475;240;2179;-46
2021/08/19 01:55:20;;;;;;;;;;;19.00;71.00;;;;;;494452;240;1164;-46
2021/08/19 01:57:21;;;;;;;;;;;19.00;70.90;;;;;;494019;240;1274;-46
2021/08/19 01:59:22;;;;;;;;;;;19.00;70.90;;;;;;494423;240;1328;-46
2021/08/19 02:01:23;;;;;;;;;;;19.00;70.90;;;;;;493941;240;1265;-46
2021/08/19 02:03:25;;;;;;;;;;;19.00;70.90;;;;;;494108;240;1305;-46
2021/08/19 02:05:27;;;;;;;;;;;18.90;71.10;;;;;;494434;240;1101;-46
2021/08/19 02:07:28;;;;;;;;;;;18.90;71.00;;;;;;494021;240;1397;-46
2021/08/19 02:09:29;;;;;;;;;;;19.00;71.00;;;;;;494086;240;1050;-46
2021/08/19 02:11:30;;;;;;;;;;;19.00;71.00;;;;;;493999;240;1290;-46
2021/08/19 02:13:32;;;;;;;;;;;18.90;71.00;;;;;;494200;240;2179;-46
2021/08/19 02:15:33;;;;;;;;;;;18.90;71.10;;;;;;494482;240;1173;-46
2021/08/19 02:17:34;;;;;;;;;;;18.90;71.00;;;;;;493989;240;1267;-46
2021/08/19 02:19:36;;;;;;;;;;;18.90;71.00;;;;;;494387;240;1071;-46
2021/08/19 02:21:37;;;;;;;;;;;18.90;71.00;;;;;;493975;240;1191;-46
2021/08/19 02:23:38;;;;;;;;;;;18.90;71.00;;;;;;494345;240;1051;-46
2021/08/19 02:25:40;;;;;;;;;;;18.90;71.00;;;;;;494484;240;1059;-46
2021/08/19 02:27:41;;;;;;;;;;;19.00;71.00;;;;;;494105;240;1884;-46
2021/08/19 02:29:42;;;;;;;;;;;19.00;71.00;;;;;;494078;240;971;-46
2021/08/19 02:31:44;;;;;;;;;;;18.90;70.90;;;;;;494429;240;1193;-46
2021/08/19 02:33:45;;;;;;;;;;;18.90;71.10;;;;;;494024;240;2191;-46
2021/08/19 02:35:46;;;;;;;;;;;18.90;71.00;;;;;;494335;240;979;-46
2021/08/19 02:37:48;;;;;;;;;;;18.90;71.10;;;;;;494107;240;1129;-46
2021/08/19 02:39:49;;;;;;;;;;;18.90;71.10;;;;;;494512;240;1048;-46
2021/08/19 02:41:50;;;;;;;;;;;18.90;71.20;;;;;;494286;240;1383;-46
2021/08/19 02:43:52;;;;;;;;;;;18.90;71.20;;;;;;494176;240;1134;-46
2021/08/19 02:45:53;;;;;;;;;;;18.90;71.10;;;;;;494513;240;1085;-46
2021/08/19 02:47:54;;;;;;;;;;;18.90;71.10;;;;;;494232;240;1066;-46
2021/08/19 02:49:56;;;;;;;;;;;18.90;71.20;;;;;;493950;240;1077;-46
2021/08/19 02:51:57;;;;;;;;;;;18.90;71.10;;;;;;494012;239;1203;-46
2021/08/19 02:53:58;;;;;;;;;;;18.90;71.10;;;;;;494027;240;2182;-46
2021/08/19 02:55:59;;;;;;;;;;;18.90;71.10;;;;;;494025;240;2446;-46
2021/08/19 02:58:01;;;;;;;;;;;18.90;71.10;;;;;;494094;240;1190;-46
2021/08/19 03:00:02;;;;;;;;;;;18.90;71.10;;;;;;494490;240;1018;-46
2021/08/19 03:02:03;;;;;;;;;;;18.90;71.10;;;;;;494327;240;1223;-46
2021/08/19 03:04:05;;;;;;;;;;;18.90;71.20;;;;;;494510;240;1201;-46
2021/08/19 03:06:06;;;;;;;;;;;18.80;71.20;;;;;;494469;240;1431;-46
2021/08/19 03:08:07;;;;;;;;;;;18.90;71.20;;;;;;494078;240;1251;-46
2021/08/19 03:10:09;;;;;;;;;;;18.90;71.20;;;;;;494289;240;1016;-46
2021/08/19 03:12:10;;;;;;;;;;;18.90;71.10;;;;;;494255;240;1256;-46
2021/08/19 03:14:11;;;;;;;;;;;18.90;71.20;;;;;;494121;240;2198;-45
2021/08/19 03:16:13;;;;;;;;;;;18.90;71.10;;;;;;494368;240;1142;-46
2021/08/19 03:18:14;;;;;;;;;;;18.80;71.10;;;;;;494015;240;1091;-46
2021/08/19 03:20:15;;;;;;;;;;;18.90;71.20;;;;;;494093;240;1081;-46
2021/08/19 03:22:17;;;;;;;;;;;18.90;71.20;;;;;;494031;240;1131;-46
2021/08/19 03:24:18;;;;;;;;;;;18.90;71.10;;;;;;494172;240;1016;-46
2021/08/19 03:26:19;;;;;;;;;;;18.80;71.20;;;;;;494477;240;1151;-46
2021/08/19 03:28:22;;;;;;;;;;;18.80;71.20;;;;;;493977;240;1299;-46
2021/08/19 03:30:22;;;;;;;;;;;18.80;71.10;;;;;;494190;240;2166;-46
2021/08/19 03:32:24;;;;;;;;;;;18.90;71.20;;;;;;494067;240;1348;-46
2021/08/19 03:34:25;;;;;;;;;;;18.80;71.20;;;;;;494016;240;2178;-46
2021/08/19 03:36:26;;;;;;;;;;;18.80;71.10;;;;;;494386;240;1193;-46
2021/08/19 03:38:28;;;;;;;;;;;18.80;71.20;;;;;;493997;240;1217;-46
2021/08/19 03:40:29;;;;;;;;;;;18.80;71.20;;;;;;494175;240;1118;-46
2021/08/19 03:42:30;;;;;;;;;;;18.80;71.10;;;;;;494153;240;1512;-46
2021/08/19 03:44:32;;;;;;;;;;;18.80;71.10;;;;;;494141;240;1183;-46
2021/08/19 03:46:33;;;;;;;;;;;18.90;71.10;;;;;;493994;239;1479;-46
2021/08/19 03:48:34;;;;;;;;;;;18.80;71.10;;;;;;494501;240;1213;-46
2021/08/19 03:50:36;;;;;;;;;;;18.80;71.20;;;;;;494039;240;1051;-46
2021/08/19 03:52:37;;;;;;;;;;;18.80;71.10;;;;;;494026;240;1506;-46
2021/08/19 03:54:38;;;;;;;;;;;18.80;71.10;;;;;;494039;240;2195;-46
2021/08/19 03:56:39;;;;;;;;;;;18.80;71.20;;;;;;493998;240;1353;-46
2021/08/19 03:58:41;;;;;;;;;;;18.80;71.10;;;;;;494001;240;1178;-46
2021/08/19 04:00:42;;;;;;;;;;;18.80;71.20;;;;;;493993;240;1430;-46
2021/08/19 04:02:46;;;;;;;;;;;18.80;71.20;;;;;;493957;240;1221;-46
2021/08/19 04:04:45;;;;;;;;;;;18.80;71.10;;;;;;494115;241;2032;-46
2021/08/19 04:06:47;;;;;;;;;;;18.80;71.10;;;;;;494010;240;1126;-46
2021/08/19 04:08:48;;;;;;;;;;;18.80;71.10;;;;;;494015;240;1081;-46
2021/08/19 04:10:49;;;;;;;;;;;18.80;71.10;;;;;;493940;240;1330;-46
2021/08/19 04:12:51;;;;;;;;;;;18.80;71.10;;;;;;494356;240;1180;-46
2021/08/19 04:14:52;;;;;;;;;;;18.80;71.20;;;;;;494050;240;2143;-46
2021/08/19 04:16:53;;;;;;;;;;;18.80;71.20;;;;;;494144;240;1154;-46
2021/08/19 04:18:55;;;;;;;;;;;18.80;71.20;;;;;;494037;240;1078;-46
2021/08/19 04:20:56;;;;;;;;;;;18.80;71.20;;;;;;494014;240;1148;-46
2021/08/19 04:22:58;;;;;;;;;;;18.80;71.20;;;;;;493949;240;1127;-46
2021/08/19 04:24:59;;;;;;;;;;;18.80;71.20;;;;;;494008;240;1048;-46
2021/08/19 04:27:00;;;;;;;;;;;18.80;71.30;;;;;;493977;240;1197;-46
2021/08/19 04:29:02;;;;;;;;;;;18.80;71.20;;;;;;494167;240;1164;-46
2021/08/19 04:31:03;;;;;;;;;;;18.80;71.20;;;;;;493940;240;1053;-46
2021/08/19 04:33:04;;;;;;;;;;;18.80;71.20;;;;;;494281;240;1074;-46
2021/08/19 04:35:06;;;;;;;;;;;18.80;71.20;;;;;;494124;240;2175;-46
2021/08/19 04:37:07;;;;;;;;;;;18.80;71.20;;;;;;493842;240;1362;-46
2021/08/19 04:39:08;;;;;;;;;;;18.80;71.20;;;;;;493920;240;1118;-46
2021/08/19 04:41:10;;;;;;;;;;;18.80;71.40;;;;;;493920;240;1141;-46
2021/08/19 04:43:11;;;;;;;;;;;18.70;71.40;;;;;;494192;240;1388;-46
2021/08/19 04:45:12;;;;;;;;;;;18.70;71.40;;;;;;494080;240;1219;-46
2021/08/19 04:47:14;;;;;;;;;;;18.70;71.40;;;;;;494218;240;1190;-46
2021/08/19 04:49:15;;;;;;;;;;;18.80;71.40;;;;;;494267;240;1136;-46
2021/08/19 04:51:16;;;;;;;;;;;18.70;71.40;;;;;;493897;240;1444;-46
2021/08/19 04:53:18;;;;;;;;;;;18.80;71.30;;;;;;494065;240;1052;-46
2021/08/19 04:55:19;;;;;;;;;;;18.80;71.30;;;;;;493897;240;2206;-46
2021/08/19 04:57:20;;;;;;;;;;;18.80;71.30;;;;;;493857;240;1133;-46
2021/08/19 04:59:21;;;;;;;;;;;18.80;71.30;;;;;;493949;240;1177;-46
2021/08/19 05:01:23;;;;;;;;;;;18.80;71.30;;;;;;494010;240;1380;-46
2021/08/19 05:03:24;;;;;;;;;;;18.80;71.30;;;;;;493842;240;1027;-46
2021/08/19 05:05:25;;;;;;;;;;;18.70;71.30;;;;;;493924;240;1062;-46
2021/08/19 05:07:27;;;;;;;;;;;18.70;71.40;;;;;;493825;240;1097;-46
2021/08/19 05:09:28;;;;;;;;;;;18.80;71.30;;;;;;494324;240;1054;-46
2021/08/19 05:11:29;;;;;;;;;;;18.80;71.20;;;;;;494178;240;1321;-46
2021/08/19 05:13:31;;;;;;;;;;;19.10;70.10;;;;;;494432;240;1051;-46
2021/08/19 05:15:32;;;;;;;;;;;19.40;69.00;;;;;;493881;240;2171;-46
2021/08/19 05:17:33;;;;;;;;;;;19.60;68.10;;;;;;493944;240;1151;-46
2021/08/19 05:19:35;;;;;;;;;;;19.80;67.30;;;;;;493876;240;1033;-46
2021/08/19 05:21:39;;;;;;;;;;;20.00;66.80;;;;;;493759;240;1329;-47
2021/08/19 05:23:37;;;;;;;;;;;20.10;66.50;;;;;;493579;241;2260;-46
2021/08/19 05:25:39;;;;;;;;;;;20.10;66.10;;;;;;493964;240;1286;-47
2021/08/19 05:27:40;;;;;;;;;;;20.20;66.00;;;;;;494155;240;1063;-46
2021/08/19 05:29:41;;;;;;;;;;;20.30;65.70;;;;;;494016;240;1159;-46
2021/08/19 05:31:43;;;;;;;;;;;20.30;65.40;;;;;;493742;240;1418;-46
2021/08/19 05:33:44;;;;;;;;;;;20.40;65.40;;;;;;493695;240;1014;-46
2021/08/19 05:35:46;;;;;;;;;;;20.40;65.10;;;;;;493668;240;2183;-46
2021/08/19 05:37:47;;;;;;;;;;;20.40;65.10;;;;;;494158;240;973;-46
2021/08/19 05:39:48;;;;;;;;;;;20.50;65.00;;;;;;493973;240;1047;-46
2021/08/19 05:41:50;;;;;;;;;;;20.50;64.80;;;;;;493788;240;1081;-47
2021/08/19 05:43:51;;;;;;;;;;;20.60;64.80;;;;;;493921;240;1044;-46
2021/08/19 05:45:52;;;;;;;;;;;20.60;64.70;;;;;;493863;240;1545;-46
2021/08/19 05:47:54;;;;;;;;;;;20.60;64.60;;;;;;493659;240;1072;-46
2021/08/19 05:49:55;;;;;;;;;;;20.60;64.60;;;;;;494002;240;1059;-46
2021/08/19 05:51:56;;;;;;;;;;;20.60;64.50;;;;;;493711;240;1142;-46
2021/08/19 05:53:57;;;;;;;;;;;20.70;64.40;;;;;;493698;240;1133;-46
2021/08/19 05:55:59;;;;;;;;;;;20.70;64.40;;;;;;493792;240;2191;-46
2021/08/19 05:58:00;;;;;;;;;;;20.70;64.20;;;;;;493775;240;1096;-46
2021/08/19 06:00:01;;;;;;;;;;;20.80;64.20;;;;;;493662;237;1335;-46
2021/08/19 06:02:03;;;;;;;;;;;20.80;64.10;;;;;;493751;240;1195;-46
2021/08/19 06:04:04;;;;;;;;;;;20.80;64.00;;;;;;493763;240;1111;-46
2021/08/19 06:06:06;;;;;;;;;;;20.80;64.00;;;;;;493846;240;1144;-46
2021/08/19 06:08:07;;;;;;;;;;;20.80;63.90;;;;;;493650;240;1244;-46
2021/08/19 06:10:09;;;;;;;;;;;20.90;63.90;;;;;;493607;240;1155;-46
2021/08/19 06:12:10;;;;;;;;;;;21.00;63.70;;;;;;493460;240;1190;-46
2021/08/19 06:14:11;;;;;;;;;;;21.00;63.70;;;;;;493760;240;2168;-46
2021/08/19 06:16:12;;;;;;;;;;;21.00;63.60;;;;;;493540;240;1266;-46
2021/08/19 06:18:14;;;;;;;;;;;21.00;63.60;;;;;;493701;240;1214;-47
2021/08/19 06:20:15;;;;;;;;;;;21.00;63.60;;;;;;493645;240;1114;-46
2021/08/19 06:22:16;;;;;;;;;;;21.00;63.60;;;;;;493633;240;1206;-46
2021/08/19 06:24:18;;;;;;;;;;;21.10;63.60;;;;;;493764;240;1163;-47
2021/08/19 06:26:19;;;;;;;;;;;21.10;63.60;;;;;;493766;240;1201;-46
2021/08/19 06:28:24;;;;;;;;;;;21.10;63.50;;;;;;493748;240;1042;-46
2021/08/19 06:30:23;;;;;;;;;;;21.10;63.50;;;;;;493541;241;2734;-46
2021/08/19 06:32:25;;;;;;;;;;;21.10;63.50;;;;;;493608;240;1215;-46
2021/08/19 06:34:26;;;;;;;;;;;21.10;63.50;;;;;;493562;240;2186;-46
2021/08/19 06:36:27;;;;;;;;;;;21.10;63.40;;;;;;493559;240;1205;-46
2021/08/19 06:38:28;;;;;;;;;;;21.20;63.40;;;;;;493518;240;1087;-46
2021/08/19 06:40:30;;;;;;;;;;;21.20;63.20;;;;;;493552;240;1085;-46
2021/08/19 06:42:31;;;;;;;;;;;21.20;63.30;;;;;;493559;240;1167;-46
2021/08/19 06:44:32;;;;;;;;;;;21.20;63.30;;;;;;493558;240;1110;-46
2021/08/19 06:46:34;;;;;;;;;;;21.20;63.30;;;;;;493364;240;1238;-46
2021/08/19 06:48:35;;;;;;;;;;;21.20;63.30;;;;;;493409;240;1127;-46
2021/08/19 06:50:36;;;;;;;;;;;21.20;63.30;;;;;;493518;240;1107;-46
2021/08/19 06:52:38;;;;;;;;;;;21.30;63.20;;;;;;493344;240;1081;-46
2021/08/19 06:54:39;;;;;;;;;;;21.30;63.20;;;;;;493338;240;2111;-46
2021/08/19 06:56:40;;;;;;;;;;;21.30;63.10;;;;;;493077;240;1329;-46
2021/08/19 06:58:42;;;;;;;;;;;21.30;63.00;;;;;;493425;240;1089;-46
2021/08/19 07:00:43;;;;;;;;;;;21.40;63.20;;;;;;493413;240;1256;-46
2021/08/19 07:02:44;;;;;;;;;;;21.40;63.00;;;;;;493241;240;1308;-47
2021/08/19 07:04:46;;;;;;;;;;;21.40;63.00;;;;;;493428;240;1095;-47
2021/08/19 07:06:47;;;;;;;;;;;21.40;63.00;;;;;;493453;240;1194;-46
2021/08/19 07:08:48;;;;;;;;;;;21.40;63.00;;;;;;493315;240;1256;-46
2021/08/19 07:10:50;;;;;;;;;;;21.40;62.90;;;;;;493346;240;1339;-46
2021/08/19 07:12:51;;;;;;;;;;;21.40;62.90;;;;;;493217;240;1120;-47
2021/08/19 07:14:52;;;;;;;;;;;21.40;62.90;;;;;;493352;240;2143;-46
2021/08/19 07:16:53;;;;;;;;;;;21.50;62.80;;;;;;493327;240;1343;-47
2021/08/19 07:18:55;;;;;;;;;;;21.40;62.90;;;;;;493259;240;1121;-46
2021/08/19 07:20:56;;;;;;;;;;;21.50;62.90;;;;;;493318;240;1348;-46
2021/08/19 07:22:57;;;;;;;;;;;21.50;62.90;;;;;;493624;240;1044;-47
2021/08/19 07:24:59;;;;;;;;;;;21.50;62.80;;;;;;493879;240;1084;-47
2021/08/19 07:27:00;;;;;;;;;;;21.50;62.80;;;;;;493558;240;1191;-46
2021/08/19 07:29:02;;;;;;;;;;;21.60;62.70;;;;;;493603;240;1067;-46
2021/08/19 07:31:03;;;;;;;;;;;21.60;62.60;;;;;;493403;240;1250;-47
2021/08/19 07:33:04;;;;;;;;;;;21.50;63.30;;;;;;493557;240;1246;-46
2021/08/19 07:35:05;;;;;;;;;;;21.50;63.60;;;;;;493365;240;2195;-46
2021/08/19 07:37:07;;;;;;;;;;;21.30;64.30;;;;;;493634;240;1200;-46
2021/08/19 07:39:08;;;;;;;;;;;21.00;65.40;;;;;;493468;240;1209;-46
2021/08/19 07:41:09;;;;;;;;;;;20.70;66.60;;;;;;493234;240;1162;-46
2021/08/19 07:43:11;;;;;;;;;;;20.50;67.40;;;;;;493430;240;1070;-46
2021/08/19 07:45:12;;;;;;;;;;;20.40;68.00;;;;;;493401;240;1187;-46
2021/08/19 07:47:13;;;;;;;;;;;20.30;68.30;;;;;;493262;240;1294;-46
2021/08/19 07:49:17;;;;;;;;;;;20.20;68.50;;;;;;493280;240;1220;-46
2021/08/19 07:51:16;;;;;;;;;;;20.10;68.60;;;;;;493214;241;2426;-46
2021/08/19 07:53:17;;;;;;;;;;;20.10;69.00;;;;;;493366;240;1087;-46
2021/08/19 07:55:19;;;;;;;;;;;20.00;69.30;;;;;;493232;240;2175;-46
2021/08/19 07:57:20;;;;;;;;;;;20.00;69.30;;;;;;492992;240;1238;-46
2021/08/19 07:59:22;;;;;;;;;;;20.00;69.40;;;;;;493048;240;1192;-46
2021/08/19 08:01:23;;;;;;;;;;;19.80;69.60;;;;;;493071;240;1173;-46
2021/08/19 08:03:24;;;;;;;;;;;19.80;69.70;;;;;;493031;240;1146;-46
2021/08/19 08:05:26;;;;;;;;;;;19.80;69.70;;;;;;493059;240;1084;-46
2021/08/19 08:07:28;;;;;;;;;;;19.80;69.80;;;;;;493019;240;1200;-46
2021/08/19 08:09:28;;;;;;;;;;;19.70;69.90;;;;;;492959;241;1235;-46
2021/08/19 08:11:30;;;;;;;;;;;19.70;70.00;;;;;;492960;241;1505;-46
2021/08/19 08:13:31;;;;;;;;;;;19.60;70.10;;;;;;492986;240;1219;-46
2021/08/19 08:15:32;;;;;;;;;;;19.60;70.10;;;;;;493091;240;2143;-46
2021/08/19 08:17:34;;;;;;;;;;;19.60;70.20;;;;;;492998;240;1187;-45
2021/08/19 08:19:35;;;;;;;;;;;19.60;70.30;;;;;;493011;240;1164;-46
2021/08/19 08:21:38;;;;;;;;;;;19.60;70.40;;;;;;492910;241;1346;-46
2021/08/19 08:23:38;;;;;;;;;;;19.60;70.40;;;;;;493836;241;2285;-46
2021/08/19 08:25:39;;;;;;;;;;;19.60;70.40;;;;;;493936;240;1204;-46
2021/08/19 08:27:40;;;;;;;;;;;19.50;70.40;;;;;;493983;240;1025;-46
2021/08/19 08:29:42;;;;;;;;;;;19.50;70.50;;;;;;494019;240;872;-46
2021/08/19 08:31:45;;;;;;;;;;;19.50;70.40;;;;;;493943;240;1178;-46
2021/08/19 08:33:45;;;;;;;;;;;19.50;70.40;;;;;;493400;241;2084;-46
2021/08/19 08:35:46;;;;;;;;;;;19.40;70.40;;;;;;493495;240;2204;-46
2021/08/19 08:37:47;;;;;;;;;;;19.40;70.50;;;;;;493951;240;1324;-46
2021/08/19 08:39:48;;;;;;;;;;;19.40;70.50;;;;;;493471;240;1280;-46
2021/08/19 08:41:50;;;;;;;;;;;19.40;70.50;;;;;;493443;240;1327;-46
2021/08/19 08:43:51;;;;;;;;;;;19.40;70.60;;;;;;494012;240;1338;-46
2021/08/19 08:45:54;;;;;;;;;;;19.40;70.70;;;;;;493529;240;1348;-46
2021/08/19 08:47:54;;;;;;;;;;;19.40;70.70;;;;;;493481;241;1964;-46
2021/08/19 08:49:55;;;;;;;;;;;19.40;70.60;;;;;;494021;240;974;-46
2021/08/19 08:51:57;;;;;;;;;;;19.40;70.60;;;;;;493932;240;1135;-46
2021/08/19 08:53:58;;;;;;;;;;;19.30;70.70;;;;;;493467;240;2259;-46
2021/08/19 08:55:59;;;;;;;;;;;19.30;70.70;;;;;;493301;240;2211;-46
2021/08/19 08:58:01;;;;;;;;;;;19.30;70.70;;;;;;493966;240;1079;-46
2021/08/19 09:00:02;;;;;;;;;;;19.30;70.70;;;;;;493545;240;890;-46
2021/08/19 09:02:03;;;;;;;;;;;19.30;70.70;;;;;;493905;240;1123;-46
2021/08/19 09:04:05;;;;;;;;;;;19.30;70.70;;;;;;493449;240;842;-46
2021/08/19 09:06:06;;;;;;;;;;;19.30;70.80;;;;;;493876;240;1151;-46
2021/08/19 09:08:07;;;;;;;;;;;19.30;70.60;;;;;;493906;240;1046;-46
2021/08/19 09:10:09;;;;;;;;;;;19.30;70.70;;;;;;493917;240;997;-46
2021/08/19 09:12:10;;;;;;;;;;;19.30;70.70;;;;;;493737;240;1026;-46
2021/08/19 09:14:11;;;;;;;;;;;19.30;70.70;;;;;;493879;240;826;-46
2021/08/19 09:16:13;;;;;;;;;;;19.30;70.80;;;;;;493818;240;2175;-46
2021/08/19 09:18:14;;;;;;;;;;;19.30;70.80;;;;;;493692;240;1150;-46
2021/08/19 09:20:15;;;;;;;;;;;19.20;70.90;;;;;;493880;240;841;-46
2021/08/19 09:22:16;;;;;;;;;;;19.20;70.80;;;;;;493835;240;1178;-45
2021/08/19 09:24:18;;;;;;;;;;;19.30;70.80;;;;;;493400;240;1198;-46
2021/08/19 09:26:19;;;;;;;;;;;19.20;70.70;;;;;;493759;240;1061;-46
2021/08/19 09:28:20;;;;;;;;;;;19.20;70.80;;;;;;493982;240;849;-46
2021/08/19 09:30:22;;;;;;;;;;;19.30;70.70;;;;;;493553;240;831;-46
2021/08/19 09:32:23;;;;;;;;;;;19.30;70.70;;;;;;493942;240;1102;-46
2021/08/19 09:34:24;;;;;;;;;;;19.20;70.70;;;;;;493574;240;914;-46
2021/08/19 09:36:26;;;;;;;;;;;19.20;70.90;;;;;;493998;240;2182;-46
2021/08/19 09:38:27;;;;;;;;;;;19.20;70.90;;;;;;494049;240;1054;-46
2021/08/19 09:40:28;;;;;;;;;;;19.20;70.90;;;;;;493259;240;1235;-46
2021/08/19 09:42:30;;;;;;;;;;;19.20;70.80;;;;;;493269;240;1183;-46
2021/08/19 09:44:32;;;;;;;;;;;19.10;70.90;;;;;;493296;240;1288;-46
2021/08/19 09:46:32;;;;;;;;;;;19.20;70.90;;;;;;493315;241;2338;-46
2021/08/19 09:48:34;;;;;;;;;;;19.20;70.90;;;;;;493361;240;1209;-46
2021/08/19 09:50:35;;;;;;;;;;;19.20;71.00;;;;;;493363;240;1349;-46
2021/08/19 09:52:37;;;;;;;;;;;19.10;71.00;;;;;;493259;240;1231;-46
2021/08/19 09:54:38;;;;;;;;;;;19.20;71.00;;;;;;493534;240;1209;-46
2021/08/19 09:56:39;;;;;;;;;;;19.20;71.00;;;;;;493225;240;2218;-46
2021/08/19 09:58:41;;;;;;;;;;;19.10;70.90;;;;;;493087;240;1384;-46
2021/08/19 10:00:42;;;;;;;;;;;19.20;71.00;;;;;;493117;240;1217;-46
2021/08/19 10:02:43;;;;;;;;;;;19.10;70.90;;;;;;493013;240;1152;-46
2021/08/19 10:04:46;;;;;;;;;;;19.10;71.00;;;;;;493270;240;1104;-46
2021/08/19 10:06:46;;;;;;;;;;;19.10;71.00;;;;;;493186;240;1722;-46
2021/08/19 10:08:48;;;;;;;;;;;19.10;71.00;;;;;;493169;240;1163;-46
2021/08/19 10:10:49;;;;;;;;;;;19.10;71.00;;;;;;493121;240;1085;-46
2021/08/19 10:12:50;;;;;;;;;;;19.10;71.00;;;;;;493455;240;1178;-46
2021/08/19 10:14:52;;;;;;;;;;;19.10;70.90;;;;;;493569;240;863;-46
2021/08/19 10:16:53;;;;;;;;;;;19.10;70.90;;;;;;493511;239;2179;-46
2021/08/19 10:18:54;;;;;;;;;;;19.10;71.00;;;;;;493776;240;1169;-46
2021/08/19 10:20:56;;;;;;;;;;;19.10;71.00;;;;;;493974;240;1078;-46
2021/08/19 10:22:57;;;;;;;;;;;19.10;71.10;;;;;;493689;240;1340;-46
2021/08/19 10:24:59;;;;;;;;;;;19.10;71.20;;;;;;493147;240;1292;-46
2021/08/19 10:27:00;;;;;;;;;;;19.00;71.00;;;;;;493089;240;2308;-46
2021/08/19 10:29:01;;;;;;;;;;;19.10;71.10;;;;;;493237;240;1285;-46
2021/08/19 10:31:03;;;;;;;;;;;19.00;71.00;;;;;;492980;240;1171;-45
2021/08/19 10:33:03;;;;;;;;;;;19.10;71.00;;;;;;493519;240;1404;-46
2021/08/19 10:35:05;;;;;;;;;;;19.00;71.00;;;;;;493970;240;901;-46
2021/08/19 10:37:06;;;;;;;;;;;19.00;71.00;;;;;;493459;240;2259;-46
2021/08/19 10:39:07;;;;;;;;;;;19.10;71.10;;;;;;493963;240;845;-46
2021/08/19 10:41:09;;;;;;;;;;;19.00;71.00;;;;;;493757;240;1224;-46
2021/08/19 10:43:10;;;;;;;;;;;19.10;71.00;;;;;;494063;240;879;-46
2021/08/19 10:45:11;;;;;;;;;;;19.10;71.00;;;;;;494085;240;941;-46
2021/08/19 10:47:13;;;;;;;;;;;19.00;71.10;;;;;;494040;240;1122;-46
2021/08/19 10:49:14;;;;;;;;;;;19.00;71.10;;;;;;493588;240;1097;-46
2021/08/19 10:51:15;;;;;;;;;;;19.00;71.10;;;;;;494066;240;1225;-46
2021/08/19 10:53:17;;;;;;;;;;;19.00;71.10;;;;;;493985;240;886;-46
2021/08/19 10:55:19;;;;;;;;;;;19.00;71.20;;;;;;494060;240;856;-46
2021/08/19 10:57:19;;;;;;;;;;;19.00;71.00;;;;;;493383;241;2186;-46
2021/08/19 10:59:21;;;;;;;;;;;19.00;71.10;;;;;;493873;240;1165;-46
2021/08/19 11:01:22;;;;;;;;;;;19.00;71.20;;;;;;493428;240;1388;-46
2021/08/19 11:03:23;;;;;;;;;;;19.00;71.20;;;;;;494048;240;1089;-46
2021/08/19 11:05:24;;;;;;;;;;;19.00;71.10;;;;;;494032;240;863;-46
2021/08/19 11:07:26;;;;;;;;;;;19.00;71.10;;;;;;494069;240;1030;-46
2021/08/19 11:09:27;;;;;;;;;;;19.00;71.10;;;;;;494089;240;828;-46
2021/08/19 11:11:28;;;;;;;;;;;19.00;71.10;;;;;;493969;240;1128;-46
2021/08/19 11:13:31;;;;;;;;;;;19.00;71.20;;;;;;493663;240;810;-46
2021/08/19 11:15:31;;;;;;;;;;;19.00;71.30;;;;;;493953;241;2159;-46
2021/08/19 11:17:32;;;;;;;;;;;19.00;71.20;;;;;;493968;240;2179;-46
2021/08/19 11:19:34;;;;;;;;;;;19.00;71.30;;;;;;493769;240;1097;-46
2021/08/19 11:21:35;;;;;;;;;;;19.00;71.20;;;;;;493884;240;1321;-46
2021/08/19 11:23:37;;;;;;;;;;;19.00;71.20;;;;;;493986;240;818;-46
2021/08/19 11:25:38;;;;;;;;;;;19.00;71.20;;;;;;493410;240;1781;-46
2021/08/19 11:27:39;;;;;;;;;;;19.00;71.10;;;;;;493916;240;1001;-46
2021/08/19 11:29:40;;;;;;;;;;;19.00;71.30;;;;;;493571;240;839;-46
2021/08/19 11:31:42;;;;;;;;;;;19.00;71.30;;;;;;493279;240;1143;-46
2021/08/19 11:33:43;;;;;;;;;;;19.00;71.30;;;;;;493389;240;1040;-46
2021/08/19 11:35:44;;;;;;;;;;;19.00;71.30;;;;;;493443;240;872;-46
2021/08/19 11:37:46;;;;;;;;;;;18.90;71.30;;;;;;493375;240;2185;-46
2021/08/19 11:39:47;;;;;;;;;;;18.90;71.20;;;;;;493480;241;1262;-46
2021/08/19 11:41:48;;;;;;;;;;;19.00;71.30;;;;;;493729;240;1172;-46
2021/08/19 11:43:50;;;;;;;;;;;18.90;71.20;;;;;;493460;240;813;-46
2021/08/19 11:45:51;;;;;;;;;;;18.90;71.20;;;;;;493466;240;1471;-45
2021/08/19 11:47:52;;;;;;;;;;;18.90;71.20;;;;;;493845;240;1382;-46
2021/08/19 11:49:54;;;;;;;;;;;18.90;71.20;;;;;;493439;240;1115;-46
2021/08/19 11:51:55;;;;;;;;;;;18.90;71.30;;;;;;493289;240;1047;-46
2021/08/19 11:53:56;;;;;;;;;;;18.90;71.20;;;;;;493845;240;874;-46
2021/08/19 11:55:58;;;;;;;;;;;18.90;71.20;;;;;;493855;240;831;-45